sensor_id;sensor_type;location;lat;lon;timestamp;pressure;altitude;pressure_sealevel;temperature;humidity
1480;BME280;732;51.698;4.886;2023-11-21T00:00:13;101171.47;;;2.40;85.38
1480;BME280;732;51.698;4.886;2023-11-21T00:02:42;101120.22;;;2.07;84.93
1480;BME280;732;51.698;4.886;2023-11-21T00:05:12;101288.13;;;3.07;85.46
1480;BME280;732;51.698;4.886;2023-11-21T00:07:42;101282.84;;;3.07;85.55
1480;BME280;732;51.698;4.886;2023-11-21T00:10:12;101259.50;;;2.89;85.12
1480;BME280;732;51.698;4.886;2023-11-21T00:12:43;101325.59;;;3.25;85.33
1480;BME280;732;51.698;4.886;2023-11-21T00:15:11;101316.31;;;3.19;85.90
1480;BME280;732;51.698;4.886;2023-11-21T00:17:40;101286.69;;;2.91;86.02
1480;BME280;732;51.698;4.886;2023-11-21T00:20:10;101250.34;;;2.71;85.92
1480;BME280;732;51.698;4.886;2023-11-21T00:22:41;101323.53;;;3.17;85.58
1480;BME280;732;51.698;4.886;2023-11-21T00:25:12;101272.25;;;2.84;86.53
1480;BME280;732;51.698;4.886;2023-11-21T00:27:42;101324.97;;;3.21;86.17
1480;BME280;732;51.698;4.886;2023-11-21T00:30:13;101206.38;;;2.45;85.82
1480;BME280;732;51.698;4.886;2023-11-21T00:32:42;101330.78;;;3.15;85.82
1480;BME280;732;51.698;4.886;2023-11-21T00:35:10;101313.44;;;3.11;86.18
1480;BME280;732;51.698;4.886;2023-11-21T00:37:39;101317.66;;;3.13;85.86
1480;BME280;732;51.698;4.886;2023-11-21T00:40:09;101311.75;;;3.10;85.88
1480;BME280;732;51.698;4.886;2023-11-21T00:42:39;101209.16;;;2.55;85.26
1480;BME280;732;51.698;4.886;2023-11-21T00:45:09;101272.59;;;2.91;85.52
1480;BME280;732;51.698;4.886;2023-11-21T00:47:37;101308.84;;;3.13;85.66
1480;BME280;732;51.698;4.886;2023-11-21T00:50:08;101304.03;;;3.07;85.83
1480;BME280;732;51.698;4.886;2023-11-21T00:52:37;101327.53;;;3.23;86.71
1480;BME280;732;51.698;4.886;2023-11-21T00:55:06;101278.03;;;3.01;85.90
1480;BME280;732;51.698;4.886;2023-11-21T00:57:36;101247.91;;;2.79;85.60
1480;BME280;732;51.698;4.886;2023-11-21T01:00:07;101323.16;;;3.33;85.78
1480;BME280;732;51.698;4.886;2023-11-21T01:02:40;101322.56;;;3.29;85.32
1480;BME280;732;51.698;4.886;2023-11-21T01:05:10;101295.34;;;3.05;85.04
1480;BME280;732;51.698;4.886;2023-11-21T01:07:39;101346.69;;;3.26;85.28
1480;BME280;732;51.698;4.886;2023-11-21T01:10:09;101319.47;;;3.02;85.49
1480;BME280;732;51.698;4.886;2023-11-21T01:12:38;101235.41;;;2.47;85.08
1480;BME280;732;51.698;4.886;2023-11-21T01:15:09;101361.00;;;3.24;85.04
1480;BME280;732;51.698;4.886;2023-11-21T01:17:39;101182.78;;;2.08;84.75
1480;BME280;732;51.698;4.886;2023-11-21T01:20:09;101329.56;;;2.96;85.51
1480;BME280;732;51.698;4.886;2023-11-21T01:22:41;101336.69;;;2.96;85.32
1480;BME280;732;51.698;4.886;2023-11-21T01:25:10;101262.72;;;2.47;85.19
1480;BME280;732;51.698;4.886;2023-11-21T01:27:39;101275.16;;;2.58;84.96
1480;BME280;732;51.698;4.886;2023-11-21T01:30:10;101287.19;;;2.62;85.11
1480;BME280;732;51.698;4.886;2023-11-21T01:32:38;101250.31;;;2.37;84.93
1480;BME280;732;51.698;4.886;2023-11-21T01:35:09;101273.22;;;2.60;85.34
1480;BME280;732;51.698;4.886;2023-11-21T01:37:38;101372.84;;;3.20;85.04
1480;BME280;732;51.698;4.886;2023-11-21T01:40:08;101376.84;;;3.14;85.28
1480;BME280;732;51.698;4.886;2023-11-21T01:42:38;101378.50;;;3.15;85.31
1480;BME280;732;51.698;4.886;2023-11-21T01:45:09;101244.53;;;2.31;85.22
1480;BME280;732;51.698;4.886;2023-11-21T01:47:41;101385.47;;;3.27;85.42
1480;BME280;732;51.698;4.886;2023-11-21T01:50:15;101262.84;;;2.57;85.16
1480;BME280;732;51.698;4.886;2023-11-21T01:52:46;101360.78;;;3.27;85.69
1480;BME280;732;51.698;4.886;2023-11-21T01:55:17;101240.22;;;2.64;85.76
1480;BME280;732;51.698;4.886;2023-11-21T01:57:51;101386.75;;;3.67;86.24
1480;BME280;732;51.698;4.886;2023-11-21T02:00:21;101310.13;;;3.30;85.93
1480;BME280;732;51.698;4.886;2023-11-21T02:02:51;101394.78;;;3.88;85.82
1480;BME280;732;51.698;4.886;2023-11-21T02:05:21;101399.84;;;4.03;86.14
1480;BME280;732;51.698;4.886;2023-11-21T02:07:49;101409.31;;;4.17;86.23
1480;BME280;732;51.698;4.886;2023-11-21T02:10:19;101391.81;;;4.14;86.27
1480;BME280;732;51.698;4.886;2023-11-21T02:12:51;101414.34;;;4.31;86.12
1480;BME280;732;51.698;4.886;2023-11-21T02:15:22;101342.81;;;3.86;86.24
1480;BME280;732;51.698;4.886;2023-11-21T02:17:55;101405.38;;;4.32;86.68
1480;BME280;732;51.698;4.886;2023-11-21T02:20:27;101286.06;;;3.66;86.44
1480;BME280;732;51.698;4.886;2023-11-21T02:22:58;101349.34;;;4.14;86.01
1480;BME280;732;51.698;4.886;2023-11-21T02:25:29;101256.50;;;3.70;85.98
1480;BME280;732;51.698;4.886;2023-11-21T02:28:01;101364.41;;;4.46;85.38
1480;BME280;732;51.698;4.886;2023-11-21T02:30:30;101317.66;;;4.22;85.24
1480;BME280;732;51.698;4.886;2023-11-21T02:32:59;101417.56;;;4.88;85.63
1480;BME280;732;51.698;4.886;2023-11-21T02:35:28;101394.03;;;4.63;85.29
1480;BME280;732;51.698;4.886;2023-11-21T02:38:00;101249.00;;;3.75;85.51
1480;BME280;732;51.698;4.886;2023-11-21T02:40:29;101229.09;;;3.70;85.45
1480;BME280;732;51.698;4.886;2023-11-21T02:42:57;101304.03;;;4.16;85.05
1480;BME280;732;51.698;4.886;2023-11-21T02:45:27;101351.59;;;4.51;85.20
1480;BME280;732;51.698;4.886;2023-11-21T02:47:55;101300.03;;;4.21;85.17
1480;BME280;732;51.698;4.886;2023-11-21T02:50:25;101406.72;;;4.80;85.22
1480;BME280;732;51.698;4.886;2023-11-21T02:52:54;101227.41;;;3.69;85.48
1480;BME280;732;51.698;4.886;2023-11-21T02:55:26;101367.25;;;4.54;85.74
1480;BME280;732;51.698;4.886;2023-11-21T02:57:55;101368.41;;;4.62;85.75
1480;BME280;732;51.698;4.886;2023-11-21T03:00:25;101431.47;;;5.02;85.20
1480;BME280;732;51.698;4.886;2023-11-21T03:02:55;101408.34;;;4.93;84.92
1480;BME280;732;51.698;4.886;2023-11-21T03:05:26;101427.19;;;5.11;85.04
1480;BME280;732;51.698;4.886;2023-11-21T03:07:56;101253.41;;;4.07;84.80
1480;BME280;732;51.698;4.886;2023-11-21T03:10:27;101295.25;;;4.36;85.17
1480;BME280;732;51.698;4.886;2023-11-21T03:12:55;101370.78;;;4.86;84.72
1480;BME280;732;51.698;4.886;2023-11-21T03:15:24;101307.97;;;4.54;84.80
1480;BME280;732;51.698;4.886;2023-11-21T03:17:53;101327.66;;;4.72;85.20
1480;BME280;732;51.698;4.886;2023-11-21T03:20:22;101411.03;;;5.23;84.85
1480;BME280;732;51.698;4.886;2023-11-21T03:22:51;101415.28;;;5.36;84.96
1480;BME280;732;51.698;4.886;2023-11-21T03:25:19;101296.84;;;4.70;84.82
1480;BME280;732;51.698;4.886;2023-11-21T03:27:52;101306.38;;;4.72;84.88
1480;BME280;732;51.698;4.886;2023-11-21T03:30:21;101343.03;;;5.00;84.71
1480;BME280;732;51.698;4.886;2023-11-21T03:32:49;101415.28;;;5.46;84.67
1480;BME280;732;51.698;4.886;2023-11-21T03:35:18;101438.00;;;5.50;84.77
1480;BME280;732;51.698;4.886;2023-11-21T03:37:48;101428.59;;;5.46;84.98
1480;BME280;732;51.698;4.886;2023-11-21T03:40:16;101263.22;;;4.38;85.23
1480;BME280;732;51.698;4.886;2023-11-21T03:42:45;101325.97;;;4.71;85.08
1480;BME280;732;51.698;4.886;2023-11-21T03:45:15;101300.38;;;4.49;85.53
1480;BME280;732;51.698;4.886;2023-11-21T03:47:44;101370.16;;;4.94;85.79
1480;BME280;732;51.698;4.886;2023-11-21T03:50:14;101411.84;;;5.24;85.63
1480;BME280;732;51.698;4.886;2023-11-21T03:52:44;101436.28;;;5.39;85.64
1480;BME280;732;51.698;4.886;2023-11-21T03:55:12;101391.78;;;5.10;85.50
1480;BME280;732;51.698;4.886;2023-11-21T03:57:42;101337.59;;;4.80;85.33
1480;BME280;732;51.698;4.886;2023-11-21T04:00:12;101434.34;;;5.41;85.07
1480;BME280;732;51.698;4.886;2023-11-21T04:02:42;101448.38;;;5.53;84.99
1480;BME280;732;51.698;4.886;2023-11-21T04:05:11;101365.94;;;5.01;84.92
1480;BME280;732;51.698;4.886;2023-11-21T04:07:39;101296.66;;;4.62;84.91
1480;BME280;732;51.698;4.886;2023-11-21T04:10:08;101429.59;;;5.45;84.89
1480;BME280;732;51.698;4.886;2023-11-21T04:12:39;101448.38;;;5.53;85.04
1480;BME280;732;51.698;4.886;2023-11-21T04:15:09;101418.47;;;5.30;85.37
1480;BME280;732;51.698;4.886;2023-11-21T04:17:38;101425.34;;;5.32;85.37
1480;BME280;732;51.698;4.886;2023-11-21T04:20:08;101481.50;;;5.70;85.75
1480;BME280;732;51.698;4.886;2023-11-21T04:22:38;101427.13;;;5.32;85.78
1480;BME280;732;51.698;4.886;2023-11-21T04:25:13;101438.09;;;5.38;85.94
1480;BME280;732;51.698;4.886;2023-11-21T04:27:43;101371.56;;;4.98;86.31
1480;BME280;732;51.698;4.886;2023-11-21T04:30:14;101406.81;;;5.21;86.45
1480;BME280;732;51.698;4.886;2023-11-21T04:32:42;101365.13;;;5.00;86.29
1480;BME280;732;51.698;4.886;2023-11-21T04:35:13;101373.25;;;4.99;86.47
1480;BME280;732;51.698;4.886;2023-11-21T04:37:44;101360.53;;;5.02;85.97
1480;BME280;732;51.698;4.886;2023-11-21T04:40:12;101440.28;;;5.54;85.96
1480;BME280;732;51.698;4.886;2023-11-21T04:42:41;101410.06;;;5.34;85.97
1480;BME280;732;51.698;4.886;2023-11-21T04:45:10;101325.59;;;4.86;86.12
1480;BME280;732;51.698;4.886;2023-11-21T04:47:40;101385.81;;;5.28;86.09
1480;BME280;732;51.698;4.886;2023-11-21T04:50:09;101416.97;;;5.47;85.85
1480;BME280;732;51.698;4.886;2023-11-21T04:52:39;101399.88;;;5.49;85.69
1480;BME280;732;51.698;4.886;2023-11-21T04:55:08;101408.34;;;5.54;85.89
1480;BME280;732;51.698;4.886;2023-11-21T04:57:38;101409.72;;;5.59;85.57
1480;BME280;732;51.698;4.886;2023-11-21T05:00:10;101523.72;;;6.35;85.74
1480;BME280;732;51.698;4.886;2023-11-21T05:02:40;101375.78;;;5.41;85.61
1480;BME280;732;51.698;4.886;2023-11-21T05:05:09;101461.94;;;6.00;85.36
1480;BME280;732;51.698;4.886;2023-11-21T05:07:40;101534.97;;;6.39;85.59
1480;BME280;732;51.698;4.886;2023-11-21T05:10:09;101450.59;;;5.88;85.74
1480;BME280;732;51.698;4.886;2023-11-21T05:12:40;101423.50;;;5.74;85.28
1480;BME280;732;51.698;4.886;2023-11-21T05:15:11;101543.25;;;6.45;85.33
1480;BME280;732;51.698;4.886;2023-11-21T05:17:42;101523.44;;;6.28;85.87
1480;BME280;732;51.698;4.886;2023-11-21T05:20:12;101488.63;;;6.10;85.63
1480;BME280;732;51.698;4.886;2023-11-21T05:22:43;101528.34;;;6.33;85.39
1480;BME280;732;51.698;4.886;2023-11-21T05:25:12;101557.03;;;6.50;85.79
1480;BME280;732;51.698;4.886;2023-11-21T05:27:40;101447.34;;;5.85;85.79
1480;BME280;732;51.698;4.886;2023-11-21T05:30:10;101537.81;;;6.47;85.53
1480;BME280;732;51.698;4.886;2023-11-21T05:32:40;101552.69;;;6.59;85.56
1480;BME280;732;51.698;4.886;2023-11-21T05:35:10;101467.03;;;6.03;85.52
1480;BME280;732;51.698;4.886;2023-11-21T05:37:45;101443.56;;;5.87;85.39
1480;BME280;732;51.698;4.886;2023-11-21T05:40:15;101473.47;;;6.01;85.63
1480;BME280;732;51.698;4.886;2023-11-21T05:42:44;101453.81;;;5.92;85.76
1480;BME280;732;51.698;4.886;2023-11-21T05:45:13;101556.75;;;6.54;85.56
1480;BME280;732;51.698;4.886;2023-11-21T05:47:44;101563.47;;;6.58;85.63
1480;BME280;732;51.698;4.886;2023-11-21T05:50:15;101575.84;;;6.59;85.66
1480;BME280;732;51.698;4.886;2023-11-21T05:52:47;101491.13;;;6.12;85.60
1480;BME280;732;51.698;4.886;2023-11-21T05:55:17;101581.75;;;6.62;85.76
1480;BME280;732;51.698;4.886;2023-11-21T05:57:48;101422.31;;;5.57;85.71
1480;BME280;732;51.698;4.886;2023-11-21T06:00:17;101480.13;;;5.85;85.56
1480;BME280;732;51.698;4.886;2023-11-21T06:02:48;101606.00;;;6.69;85.66
1480;BME280;732;51.698;4.886;2023-11-21T06:05:23;101586.91;;;6.64;85.76
1480;BME280;732;51.698;4.886;2023-11-21T06:07:55;101572.19;;;6.60;85.55
1480;BME280;732;51.698;4.886;2023-11-21T06:10:26;101534.25;;;6.36;85.35
1480;BME280;732;51.698;4.886;2023-11-21T06:12:56;101459.69;;;5.86;85.28
1480;BME280;732;51.698;4.886;2023-11-21T06:15:29;101492.25;;;5.99;85.40
1480;BME280;732;51.698;4.886;2023-11-21T06:17:58;101602.25;;;6.72;85.44
1480;BME280;732;51.698;4.886;2023-11-21T06:20:27;101629.38;;;6.87;85.48
1480;BME280;732;51.698;4.886;2023-11-21T06:22:56;101585.38;;;6.61;85.25
1480;BME280;732;51.698;4.886;2023-11-21T06:25:25;101513.81;;;5.96;85.72
1480;BME280;732;51.698;4.886;2023-11-21T06:27:54;101514.25;;;6.01;86.24
1480;BME280;732;51.698;4.886;2023-11-21T06:30:23;101565.50;;;6.25;86.53
1480;BME280;732;51.698;4.886;2023-11-21T06:32:51;101441.94;;;5.55;86.69
1480;BME280;732;51.698;4.886;2023-11-21T06:35:21;101556.09;;;6.20;86.77
1480;BME280;732;51.698;4.886;2023-11-21T06:37:49;101581.00;;;6.41;86.73
1480;BME280;732;51.698;4.886;2023-11-21T06:40:20;101583.78;;;6.39;86.97
1480;BME280;732;51.698;4.886;2023-11-21T06:42:49;101452.47;;;5.67;86.96
1480;BME280;732;51.698;4.886;2023-11-21T06:45:19;101630.75;;;6.81;87.06
1480;BME280;732;51.698;4.886;2023-11-21T06:47:48;101637.22;;;6.78;87.19
1480;BME280;732;51.698;4.886;2023-11-21T06:50:17;101621.47;;;6.65;87.11
1480;BME280;732;51.698;4.886;2023-11-21T06:52:46;101549.34;;;6.16;87.12
1480;BME280;732;51.698;4.886;2023-11-21T06:55:15;101648.13;;;6.75;87.00
1480;BME280;732;51.698;4.886;2023-11-21T06:57:45;101594.97;;;6.33;87.14
1480;BME280;732;51.698;4.886;2023-11-21T07:00:17;101541.59;;;6.03;87.06
1480;BME280;732;51.698;4.886;2023-11-21T07:02:46;101614.94;;;6.39;86.91
1480;BME280;732;51.698;4.886;2023-11-21T07:05:15;101680.13;;;6.65;87.54
1480;BME280;732;51.698;4.886;2023-11-21T07:07:48;101643.72;;;6.45;87.31
1480;BME280;732;51.698;4.886;2023-11-21T07:10:17;101535.38;;;5.83;87.53
1480;BME280;732;51.698;4.886;2023-11-21T07:12:48;101494.06;;;5.58;87.43
1480;BME280;732;51.698;4.886;2023-11-21T07:15:17;101596.94;;;6.31;87.37
1480;BME280;732;51.698;4.886;2023-11-21T07:17:46;101667.34;;;6.69;87.47
1480;BME280;732;51.698;4.886;2023-11-21T07:20:16;101683.69;;;6.86;87.49
1480;BME280;732;51.698;4.886;2023-11-21T07:22:45;101552.13;;;6.05;87.46
1480;BME280;732;51.698;4.886;2023-11-21T07:25:14;101677.50;;;6.85;87.13
1480;BME280;732;51.698;4.886;2023-11-21T07:27:43;101681.25;;;6.73;88.13
1480;BME280;732;51.698;4.886;2023-11-21T07:30:14;101687.19;;;6.86;88.06
1480;BME280;732;51.698;4.886;2023-11-21T07:32:42;101596.50;;;6.26;88.21
1480;BME280;732;51.698;4.886;2023-11-21T07:35:12;101701.94;;;7.00;88.08
1480;BME280;732;51.698;4.886;2023-11-21T07:37:40;101602.75;;;6.46;87.91
1480;BME280;732;51.698;4.886;2023-11-21T07:40:08;101715.16;;;7.11;87.79
1480;BME280;732;51.698;4.886;2023-11-21T07:42:38;101709.84;;;7.21;87.45
1480;BME280;732;51.698;4.886;2023-11-21T07:45:08;101686.09;;;7.08;87.50
1480;BME280;732;51.698;4.886;2023-11-21T07:47:38;101714.34;;;7.21;86.80
1480;BME280;732;51.698;4.886;2023-11-21T07:50:09;101719.97;;;7.27;86.91
1480;BME280;732;51.698;4.886;2023-11-21T07:52:37;101732.91;;;7.32;86.72
1480;BME280;732;51.698;4.886;2023-11-21T07:55:06;101718.97;;;7.19;86.68
1480;BME280;732;51.698;4.886;2023-11-21T07:57:35;101723.19;;;7.21;86.59
1480;BME280;732;51.698;4.886;2023-11-21T08:00:06;101738.09;;;7.33;86.57
1480;BME280;732;51.698;4.886;2023-11-21T08:02:41;101660.09;;;6.81;86.53
1480;BME280;732;51.698;4.886;2023-11-21T08:05:13;101746.53;;;7.39;86.32
1480;BME280;732;51.698;4.886;2023-11-21T08:07:54;101713.38;;;7.12;86.46
1480;BME280;732;51.698;4.886;2023-11-21T08:10:23;101729.63;;;7.09;86.33
1480;BME280;732;51.698;4.886;2023-11-21T08:12:52;101704.59;;;6.90;86.67
1480;BME280;732;51.698;4.886;2023-11-21T08:15:20;101753.09;;;7.15;86.93
1480;BME280;732;51.698;4.886;2023-11-21T08:17:50;101595.13;;;5.91;89.19
1480;BME280;732;51.698;4.886;2023-11-21T08:20:18;101716.06;;;6.71;90.02
1480;BME280;732;51.698;4.886;2023-11-21T08:22:47;101688.53;;;6.61;90.41
1480;BME280;732;51.698;4.886;2023-11-21T08:25:16;101640.88;;;6.36;90.33
1480;BME280;732;51.698;4.886;2023-11-21T08:27:47;101780.22;;;7.10;91.20
1480;BME280;732;51.698;4.886;2023-11-21T08:30:15;101778.50;;;6.99;91.83
1480;BME280;732;51.698;4.886;2023-11-21T08:32:46;101791.50;;;6.93;92.79
1480;BME280;732;51.698;4.886;2023-11-21T08:35:16;101797.84;;;6.92;92.86
1480;BME280;732;51.698;4.886;2023-11-21T08:37:45;101738.72;;;6.46;93.50
1480;BME280;732;51.698;4.886;2023-11-21T08:40:14;101799.91;;;6.78;94.11
1480;BME280;732;51.698;4.886;2023-11-21T08:42:44;101754.63;;;6.57;93.47
1480;BME280;732;51.698;4.886;2023-11-21T08:45:14;101757.88;;;6.61;93.60
1480;BME280;732;51.698;4.886;2023-11-21T08:47:45;101801.63;;;6.89;93.19
1480;BME280;732;51.698;4.886;2023-11-21T08:50:15;101786.91;;;6.95;92.84
1480;BME280;732;51.698;4.886;2023-11-21T08:52:44;101809.00;;;7.07;92.60
1480;BME280;732;51.698;4.886;2023-11-21T08:55:14;101805.09;;;7.21;92.33
1480;BME280;732;51.698;4.886;2023-11-21T08:57:44;101737.63;;;6.89;92.21
1480;BME280;732;51.698;4.886;2023-11-21T09:00:14;101751.56;;;7.12;92.19
1480;BME280;732;51.698;4.886;2023-11-21T09:02:45;101706.03;;;6.94;91.11
1480;BME280;732;51.698;4.886;2023-11-21T09:05:16;101689.03;;;7.05;90.08
1480;BME280;732;51.698;4.886;2023-11-21T09:07:46;101811.91;;;7.64;89.80
1480;BME280;732;51.698;4.886;2023-11-21T09:10:16;101739.88;;;7.04;89.94
1480;BME280;732;51.698;4.886;2023-11-21T09:12:44;101730.06;;;7.04;89.92
1480;BME280;732;51.698;4.886;2023-11-21T09:15:12;101834.13;;;7.64;89.83
1480;BME280;732;51.698;4.886;2023-11-21T09:17:42;101814.84;;;7.61;90.12
1480;BME280;732;51.698;4.886;2023-11-21T09:20:12;101782.22;;;7.28;90.18
1480;BME280;732;51.698;4.886;2023-11-21T09:22:43;101705.78;;;6.66;90.50
1480;BME280;732;51.698;4.886;2023-11-21T09:25:13;101777.56;;;7.10;90.92
1480;BME280;732;51.698;4.886;2023-11-21T09:27:42;101840.88;;;7.69;90.76
1480;BME280;732;51.698;4.886;2023-11-21T09:30:11;101823.59;;;7.73;89.79
1480;BME280;732;51.698;4.886;2023-11-21T09:32:41;101719.78;;;6.90;89.41
1480;BME280;732;51.698;4.886;2023-11-21T09:35:13;101805.00;;;7.42;90.05
1480;BME280;732;51.698;4.886;2023-11-21T09:37:44;101731.47;;;7.08;89.66
1480;BME280;732;51.698;4.886;2023-11-21T09:40:21;101845.63;;;7.65;89.70
1480;BME280;732;51.698;4.886;2023-11-21T09:42:55;101847.75;;;7.71;89.50
1480;BME280;732;51.698;4.886;2023-11-21T09:45:27;101849.59;;;7.80;90.24
1480;BME280;732;51.698;4.886;2023-11-21T09:47:56;101872.28;;;8.16;89.83
1480;BME280;732;51.698;4.886;2023-11-21T09:50:25;101858.06;;;7.95;89.57
1480;BME280;732;51.698;4.886;2023-11-21T09:53:13;101824.84;;;7.88;88.94
1480;BME280;732;51.698;4.886;2023-11-21T09:55:45;101861.03;;;8.12;89.20
1480;BME280;732;51.698;4.886;2023-11-21T09:58:15;101734.00;;;7.20;89.23
1480;BME280;732;51.698;4.886;2023-11-21T10:00:45;101726.97;;;7.19;89.05
1480;BME280;732;51.698;4.886;2023-11-21T10:03:14;101878.47;;;8.26;88.97
1480;BME280;732;51.698;4.886;2023-11-21T10:05:44;101831.06;;;7.79;88.28
1480;BME280;732;51.698;4.886;2023-11-21T10:08:15;101781.03;;;7.01;90.13
1480;BME280;732;51.698;4.886;2023-11-21T10:10:46;101784.09;;;6.87;91.91
1480;BME280;732;51.698;4.886;2023-11-21T10:13:19;101813.41;;;7.37;91.48
1480;BME280;732;51.698;4.886;2023-11-21T10:15:51;101887.72;;;7.92;91.29
1480;BME280;732;51.698;4.886;2023-11-21T10:18:20;101908.56;;;8.08;91.33
1480;BME280;732;51.698;4.886;2023-11-21T10:20:52;101910.69;;;8.34;89.87
1480;BME280;732;51.698;4.886;2023-11-21T10:23:23;101823.44;;;7.64;89.45
1480;BME280;732;51.698;4.886;2023-11-21T10:25:52;101901.69;;;8.45;89.31
1480;BME280;732;51.698;4.886;2023-11-21T10:28:24;101868.88;;;8.53;88.14
1480;BME280;732;51.698;4.886;2023-11-21T10:30:53;101927.34;;;8.95;87.48
1480;BME280;732;51.698;4.886;2023-11-21T10:33:27;101840.50;;;8.03;87.11
1480;BME280;732;51.698;4.886;2023-11-21T10:35:56;101851.31;;;8.01;87.67
1480;BME280;732;51.698;4.886;2023-11-21T10:38:26;101790.53;;;7.54;87.95
1480;BME280;732;51.698;4.886;2023-11-21T10:40:55;101799.81;;;7.60;88.33
1480;BME280;732;51.698;4.886;2023-11-21T10:43:25;101908.03;;;8.24;88.72
1480;BME280;732;51.698;4.886;2023-11-21T10:45:58;101934.47;;;8.37;88.68
1480;BME280;732;51.698;4.886;2023-11-21T10:48:27;101924.78;;;8.26;89.03
1480;BME280;732;51.698;4.886;2023-11-21T10:50:55;101865.13;;;7.96;88.84
1480;BME280;732;51.698;4.886;2023-11-21T10:53:29;101897.16;;;8.16;88.53
1480;BME280;732;51.698;4.886;2023-11-21T10:56:02;101954.88;;;8.48;89.06
1480;BME280;732;51.698;4.886;2023-11-21T10:58:35;101866.44;;;7.71;90.06
1480;BME280;732;51.698;4.886;2023-11-21T11:01:06;101937.97;;;8.08;90.26
1480;BME280;732;51.698;4.886;2023-11-21T11:03:36;101923.88;;;7.87;91.50
1480;BME280;732;51.698;4.886;2023-11-21T11:06:06;101875.47;;;7.90;90.46
1480;BME280;732;51.698;4.886;2023-11-21T11:08:40;101814.41;;;7.46;88.94
1480;BME280;732;51.698;4.886;2023-11-21T11:11:10;101846.75;;;7.43;89.55
1480;BME280;732;51.698;4.886;2023-11-21T11:13:42;101964.47;;;8.21;89.73
1480;BME280;732;51.698;4.886;2023-11-21T11:16:12;101971.78;;;8.49;89.37
1480;BME280;732;51.698;4.886;2023-11-21T11:18:44;101882.31;;;7.53;89.72
1480;BME280;732;51.698;4.886;2023-11-21T11:21:27;101950.56;;;7.77;90.61
1480;BME280;732;51.698;4.886;2023-11-21T11:24:13;101930.41;;;7.63;90.76
1480;BME280;732;51.698;4.886;2023-11-21T11:26:51;101995.56;;;7.81;91.27
1480;BME280;732;51.698;4.886;2023-11-21T11:29:31;101881.44;;;7.02;91.38
1480;BME280;732;51.698;4.886;2023-11-21T11:32:10;101946.72;;;7.29;91.53
1480;BME280;732;51.698;4.886;2023-11-21T11:34:47;101974.41;;;7.69;91.30
1480;BME280;732;51.698;4.886;2023-11-21T11:37:17;101969.63;;;7.53;91.23
1480;BME280;732;51.698;4.886;2023-11-21T11:39:49;101988.78;;;7.37;92.57
1480;BME280;732;51.698;4.886;2023-11-21T11:42:18;101873.81;;;6.66;92.44
1480;BME280;732;51.698;4.886;2023-11-21T11:44:49;101953.19;;;6.95;93.09
1480;BME280;732;51.698;4.886;2023-11-21T11:47:23;101916.38;;;6.68;93.46
1480;BME280;732;51.698;4.886;2023-11-21T11:50:01;101891.31;;;6.38;93.46
1480;BME280;732;51.698;4.886;2023-11-21T11:52:39;101892.41;;;6.35;93.85
1480;BME280;732;51.698;4.886;2023-11-21T11:55:11;101874.22;;;6.41;93.49
1480;BME280;732;51.698;4.886;2023-11-21T11:57:42;102006.25;;;7.20;93.19
1480;BME280;732;51.698;4.886;2023-11-21T12:00:13;101917.59;;;6.64;93.52
1480;BME280;732;51.698;4.886;2023-11-21T12:02:47;101928.53;;;6.61;93.51
1480;BME280;732;51.698;4.886;2023-11-21T12:05:18;102022.78;;;7.35;93.34
1480;BME280;732;51.698;4.886;2023-11-21T12:07:49;101906.53;;;6.47;92.75
1480;BME280;732;51.698;4.886;2023-11-21T12:10:23;101925.47;;;6.44;93.07
1480;BME280;732;51.698;4.886;2023-11-21T12:12:54;101896.75;;;6.36;93.38
1480;BME280;732;51.698;4.886;2023-11-21T12:15:24;102025.13;;;7.49;92.43
1480;BME280;732;51.698;4.886;2023-11-21T12:17:53;102002.72;;;7.40;91.68
1480;BME280;732;51.698;4.886;2023-11-21T12:20:23;102032.00;;;7.82;90.80
1480;BME280;732;51.698;4.886;2023-11-21T12:22:53;101943.63;;;7.24;90.37
1480;BME280;732;51.698;4.886;2023-11-21T12:25:25;101953.59;;;7.22;90.20
1480;BME280;732;51.698;4.886;2023-11-21T12:27:56;102006.03;;;7.63;89.34
1480;BME280;732;51.698;4.886;2023-11-21T12:30:28;101970.88;;;7.27;89.19
1480;BME280;732;51.698;4.886;2023-11-21T12:32:59;101918.50;;;7.05;89.48
1480;BME280;732;51.698;4.886;2023-11-21T12:35:30;102059.84;;;7.90;89.29
1480;BME280;732;51.698;4.886;2023-11-21T12:38:02;101990.53;;;7.16;89.50
1480;BME280;732;51.698;4.886;2023-11-21T12:40:32;101978.09;;;7.06;89.84
1480;BME280;732;51.698;4.886;2023-11-21T12:43:01;102067.13;;;7.78;89.49
1480;BME280;732;51.698;4.886;2023-11-21T12:45:32;102056.88;;;8.14;88.30
1480;BME280;732;51.698;4.886;2023-11-21T12:48:02;102063.88;;;8.05;87.43
1480;BME280;732;51.698;4.886;2023-11-21T12:50:35;102045.91;;;7.86;87.78
1480;BME280;732;51.698;4.886;2023-11-21T12:53:06;102012.53;;;7.71;87.20
1480;BME280;732;51.698;4.886;2023-11-21T12:55:37;102012.28;;;7.84;86.47
1480;BME280;732;51.698;4.886;2023-11-21T12:58:07;102058.09;;;8.00;85.89
1480;BME280;732;51.698;4.886;2023-11-21T13:00:44;101995.69;;;7.39;86.06
1480;BME280;732;51.698;4.886;2023-11-21T13:03:14;101996.75;;;7.27;86.39
1480;BME280;732;51.698;4.886;2023-11-21T13:05:48;102082.34;;;7.87;86.44
1480;BME280;732;51.698;4.886;2023-11-21T13:08:21;102058.72;;;7.52;86.61
1480;BME280;732;51.698;4.886;2023-11-21T13:10:54;101986.75;;;6.98;86.83
1480;BME280;732;51.698;4.886;2023-11-21T13:13:25;102076.22;;;7.44;87.30
1480;BME280;732;51.698;4.886;2023-11-21T13:15:56;102046.25;;;7.62;86.47
1480;BME280;732;51.698;4.886;2023-11-21T13:18:28;102095.69;;;8.08;86.24
1480;BME280;732;51.698;4.886;2023-11-21T13:20:59;102101.81;;;8.30;85.42
1480;BME280;732;51.698;4.886;2023-11-21T13:23:29;102077.44;;;8.23;84.85
1480;BME280;732;51.698;4.886;2023-11-21T13:26:05;102102.63;;;8.21;83.85
1480;BME280;732;51.698;4.886;2023-11-21T13:28:35;102087.81;;;7.55;85.21
1480;BME280;732;51.698;4.886;2023-11-21T13:31:06;102108.19;;;7.77;85.51
1480;BME280;732;51.698;4.886;2023-11-21T13:33:48;102106.47;;;7.97;85.26
1480;BME280;732;51.698;4.886;2023-11-21T13:36:22;102107.94;;;8.11;84.95
1480;BME280;732;51.698;4.886;2023-11-21T13:38:51;102110.81;;;8.29;84.32
1480;BME280;732;51.698;4.886;2023-11-21T13:41:22;102071.09;;;8.24;83.36
1480;BME280;732;51.698;4.886;2023-11-21T13:43:57;102036.34;;;7.84;83.17
1480;BME280;732;51.698;4.886;2023-11-21T13:46:36;101973.41;;;7.29;83.30
1480;BME280;732;51.698;4.886;2023-11-21T13:49:05;102028.84;;;7.37;84.63